Time,TemperatureF,DewpointF,PressureIn,WindDirection,WindDirectionDegrees,WindSpeedMPH,WindSpeedGustMPH,Humidity,HourlyPrecipIn,Conditions,Clouds,dailyrainin,SolarRadiationWatts/m^2,SoftwareType,DateUTC
2013-02-21 00:03:00,11.0,8.0,-100.00,North,0,9.0,19.0,89,0.00,,,0.00,0.000000,,2013-02-21 05:03:00,
2013-02-21 00:37:00,11.0,8.0,-100.00,North,0,7.0,20.0,87,0.00,,,0.00,0.000000,,2013-02-21 05:37:00,
2013-02-21 00:46:00,11.0,8.0,-100.00,North,0,7.0,20.0,87,0.00,,,0.00,0.000000,,2013-02-21 05:46:00,
2013-02-21 01:01:00,11.0,8.0,-100.00,North,0,7.0,20.0,87,0.00,,,0.00,0.000000,,2013-02-21 06:01:00,
2013-02-21 01:31:00,11.0,9.0,-100.00,North,0,10.0,19.0,90,0.00,,,0.00,0.000000,,2013-02-21 06:31:00,
2013-02-21 01:42:00,11.0,9.0,-100.00,North,0,10.0,19.0,90,0.00,,,0.00,0.000000,,2013-02-21 06:42:00,
2013-02-21 01:52:00,11.0,9.0,-100.00,North,0,10.0,19.0,90,0.00,,,0.00,0.000000,,2013-02-21 06:52:00,
2013-02-21 02:01:00,11.0,9.0,-100.00,North,0,10.0,19.0,90,0.00,,,0.00,0.000000,,2013-02-21 07:01:00,
2013-02-21 02:32:00,11.0,8.0,-100.00,North,0,11.0,24.0,88,0.00,,,-99.99,0.000000,,2013-02-21 07:32:00,
2013-02-21 02:42:00,11.0,8.0,-100.00,North,0,11.0,24.0,88,0.00,,,-99.99,0.000000,,2013-02-21 07:42:00,
2013-02-21 02:52:00,11.0,8.0,-100.00,North,0,11.0,24.0,88,0.00,,,-99.99,0.000000,,2013-02-21 07:52:00,
2013-02-21 03:02:00,11.0,8.0,-100.00,North,0,11.0,24.0,88,0.00,,,-99.99,0.000000,,2013-02-21 08:02:00,
2013-02-21 03:32:00,11.0,8.0,-100.00,North,0,8.0,21.0,87,0.00,,,-99.99,0.000000,,2013-02-21 08:32:00,
2013-02-21 03:42:00,11.0,8.0,-100.00,North,0,8.0,21.0,87,0.00,,,-99.99,0.000000,,2013-02-21 08:42:00,
2013-02-21 03:52:00,11.0,8.0,-100.00,North,0,8.0,21.0,87,0.00,,,-99.99,0.000000,,2013-02-21 08:52:00,
2013-02-21 04:02:00,11.0,8.0,-100.00,North,0,8.0,21.0,87,0.00,,,-99.99,0.000000,,2013-02-21 09:02:00,
2013-02-21 04:32:00,12.0,10.0,-100.00,North,0,7.0,21.0,91,0.00,,,0.00,0.000000,,2013-02-21 09:32:00,
2013-02-21 04:42:00,12.0,10.0,-100.00,North,0,7.0,21.0,91,0.00,,,0.00,0.000000,,2013-02-21 09:42:00,
2013-02-21 04:52:00,12.0,10.0,-100.00,North,0,7.0,21.0,91,0.00,,,0.00,0.000000,,2013-02-21 09:52:00,
2013-02-21 05:01:00,12.0,10.0,-100.00,North,0,7.0,21.0,91,0.00,,,0.00,0.000000,,2013-02-21 10:01:00,
2013-02-21 05:31:00,12.0,10.0,-100.00,North,0,9.0,17.0,90,0.00,,,0.00,0.000000,,2013-02-21 10:31:00,
2013-02-21 05:41:00,12.0,10.0,-100.00,North,0,9.0,17.0,90,0.00,,,0.00,0.000000,,2013-02-21 10:41:00,
2013-02-21 05:51:00,12.0,10.0,-100.00,North,0,9.0,17.0,90,0.00,,,0.00,0.000000,,2013-02-21 10:51:00,
2013-02-21 06:01:00,12.0,10.0,-100.00,North,0,9.0,17.0,90,0.00,,,0.00,0.000000,,2013-02-21 11:01:00,
2013-02-21 06:31:00,11.0,8.0,-100.00,North,0,9.0,18.0,89,0.00,,,0.00,0.000000,,2013-02-21 11:31:00,
2013-02-21 06:41:00,11.0,8.0,-100.00,North,0,9.0,18.0,89,0.00,,,0.00,0.000000,,2013-02-21 11:41:00,
2013-02-21 06:52:00,11.0,8.0,-100.00,North,0,9.0,18.0,89,0.00,,,0.00,0.000000,,2013-02-21 11:52:00,
2013-02-21 07:01:00,11.0,8.0,-100.00,North,0,9.0,18.0,89,0.00,,,0.00,0.000000,,2013-02-21 12:01:00,
2013-02-21 07:32:00,11.0,8.0,-100.00,North,0,9.0,22.0,89,0.00,,,0.00,1.000000,,2013-02-21 12:32:00,
2013-02-21 07:43:00,11.0,8.0,-100.00,North,0,9.0,22.0,89,0.00,,,0.00,1.000000,,2013-02-21 12:43:00,
2013-02-21 07:53:00,11.0,8.0,-100.00,North,0,9.0,22.0,89,0.00,,,0.00,1.000000,,2013-02-21 12:53:00,
2013-02-21 08:02:00,11.0,8.0,-100.00,North,0,9.0,22.0,89,0.00,,,0.00,1.000000,,2013-02-21 13:02:00,
2013-02-21 09:32:00,14.0,11.0,-100.00,North,0,8.0,19.0,88,-99.99,,,0.00,122.000000,,2013-02-21 14:32:00,
2013-02-21 09:42:00,14.0,11.0,-100.00,North,0,8.0,19.0,88,-99.99,,,0.00,122.000000,,2013-02-21 14:42:00,
2013-02-21 09:52:00,14.0,11.0,-100.00,North,0,8.0,19.0,88,-99.99,,,0.00,122.000000,,2013-02-21 14:52:00,
2013-02-21 10:02:00,14.0,11.0,-100.00,North,0,8.0,19.0,88,-99.99,,,0.00,122.000000,,2013-02-21 15:02:00,
2013-02-21 10:32:00,14.0,11.0,-100.00,North,0,9.0,19.0,88,0.00,,,0.00,140.000000,,2013-02-21 15:32:00,
2013-02-21 10:42:00,14.0,11.0,-100.00,North,0,9.0,19.0,88,0.00,,,0.00,140.000000,,2013-02-21 15:42:00,
2013-02-21 10:52:00,14.0,11.0,-100.00,North,0,9.0,19.0,88,0.00,,,0.00,140.000000,,2013-02-21 15:52:00,
2013-02-21 11:02:00,14.0,11.0,-100.00,North,0,9.0,19.0,88,0.00,,,0.00,140.000000,,2013-02-21 16:02:00,
2013-02-21 11:32:00,15.0,12.0,-100.00,North,0,10.0,17.0,88,0.00,,,0.00,165.000000,,2013-02-21 16:32:00,
2013-02-21 11:42:00,15.0,12.0,-100.00,North,0,10.0,17.0,88,0.00,,,0.00,165.000000,,2013-02-21 16:42:00,
2013-02-21 11:52:00,15.0,12.0,-100.00,North,0,10.0,17.0,88,0.00,,,0.00,165.000000,,2013-02-21 16:52:00,
2013-02-21 12:02:00,15.0,12.0,-100.00,North,0,10.0,17.0,88,0.00,,,0.00,165.000000,,2013-02-21 17:02:00,
2013-02-21 12:32:00,17.0,13.0,-100.00,North,0,8.0,17.0,85,0.00,,,0.00,271.000000,,2013-02-21 17:32:00,
2013-02-21 12:42:00,17.0,13.0,-100.00,North,0,8.0,17.0,85,0.00,,,0.00,271.000000,,2013-02-21 17:42:00,
2013-02-21 12:52:00,17.0,13.0,-100.00,North,0,8.0,17.0,85,0.00,,,0.00,271.000000,,2013-02-21 17:52:00,
2013-02-21 13:02:00,17.0,13.0,-100.00,North,0,8.0,17.0,85,0.00,,,0.00,271.000000,,2013-02-21 18:02:00,
2013-02-21 14:32:00,17.0,14.0,-100.00,North,0,8.0,15.0,87,-99.99,,,0.00,190.000000,,2013-02-21 19:32:00,
2013-02-21 14:42:00,17.0,14.0,-100.00,North,0,8.0,15.0,87,-99.99,,,0.00,190.000000,,2013-02-21 19:42:00,
2013-02-21 14:52:00,17.0,14.0,-100.00,North,0,8.0,15.0,87,-99.99,,,0.00,190.000000,,2013-02-21 19:52:00,
2013-02-21 15:01:00,17.0,14.0,-100.00,North,0,8.0,15.0,87,-99.99,,,0.00,190.000000,,2013-02-21 20:01:00,
2013-02-21 15:32:00,17.0,14.0,-100.00,North,0,7.0,15.0,87,0.00,,,0.00,149.000000,,2013-02-21 20:32:00,
2013-02-21 15:42:00,17.0,14.0,-100.00,North,0,7.0,15.0,87,0.00,,,0.00,149.000000,,2013-02-21 20:42:00,
2013-02-21 15:53:00,17.0,14.0,-100.00,North,0,7.0,15.0,87,0.00,,,0.00,149.000000,,2013-02-21 20:53:00,
2013-02-21 16:02:00,17.0,14.0,-100.00,North,0,7.0,15.0,87,0.00,,,0.00,149.000000,,2013-02-21 21:02:00,
2013-02-21 16:32:00,17.0,14.0,-100.00,North,0,5.0,15.0,88,0.00,,,0.00,117.000000,,2013-02-21 21:32:00,
2013-02-21 16:42:00,17.0,14.0,-100.00,North,0,5.0,15.0,88,0.00,,,0.00,117.000000,,2013-02-21 21:42:00,
2013-02-21 16:52:00,17.0,14.0,-100.00,North,0,5.0,15.0,88,0.00,,,0.00,117.000000,,2013-02-21 21:52:00,
2013-02-21 17:01:00,17.0,14.0,-100.00,North,0,5.0,15.0,88,0.00,,,0.00,117.000000,,2013-02-21 22:01:00,
2013-02-21 17:32:00,16.0,13.0,-100.00,North,0,6.0,10.0,87,0.00,,,0.00,77.000000,,2013-02-21 22:32:00,
2013-02-21 17:42:00,16.0,13.0,-100.00,North,0,6.0,10.0,87,0.00,,,0.00,77.000000,,2013-02-21 22:42:00,
2013-02-21 17:52:00,16.0,13.0,-100.00,North,0,6.0,10.0,87,0.00,,,0.00,77.000000,,2013-02-21 22:52:00,
2013-02-21 18:01:00,16.0,13.0,-100.00,North,0,6.0,10.0,87,0.00,,,0.00,77.000000,,2013-02-21 23:01:00,
2013-02-21 18:32:00,13.0,10.0,-100.00,North,0,2.0,11.0,87,0.00,,,0.00,41.000000,,2013-02-21 23:32:00,
2013-02-21 18:42:00,13.0,10.0,-100.00,North,0,2.0,11.0,87,0.00,,,0.00,41.000000,,2013-02-21 23:42:00,
2013-02-21 18:53:00,13.0,10.0,-100.00,North,0,2.0,11.0,87,0.00,,,0.00,41.000000,,2013-02-21 23:53:00,
2013-02-21 19:02:00,13.0,10.0,-100.00,North,0,2.0,11.0,87,0.00,,,0.00,41.000000,,2013-02-22 00:02:00,
2013-02-21 19:32:00,11.0,8.0,-100.00,North,0,1.0,5.0,89,0.00,,,0.00,1.000000,,2013-02-22 00:32:00,
2013-02-21 19:42:00,11.0,8.0,-100.00,North,0,1.0,5.0,89,0.00,,,0.00,1.000000,,2013-02-22 00:42:00,
2013-02-21 19:52:00,11.0,8.0,-100.00,North,0,1.0,5.0,89,0.00,,,0.00,1.000000,,2013-02-22 00:52:00,
2013-02-21 20:01:00,11.0,8.0,-100.00,North,0,1.0,5.0,89,0.00,,,0.00,1.000000,,2013-02-22 01:01:00,
2013-02-21 21:32:00,13.0,11.0,-100.00,North,0,0.0,0.0,90,-99.99,,,0.00,0.000000,,2013-02-22 02:32:00,
2013-02-21 21:42:00,13.0,11.0,-100.00,North,0,0.0,0.0,90,-99.99,,,0.00,0.000000,,2013-02-22 02:42:00,
2013-02-21 21:52:00,13.0,11.0,-100.00,North,0,0.0,0.0,90,-99.99,,,0.00,0.000000,,2013-02-22 02:52:00,
2013-02-21 22:02:00,13.0,11.0,-100.00,North,0,0.0,0.0,90,-99.99,,,0.00,0.000000,,2013-02-22 03:02:00,
2013-02-21 22:32:00,14.0,11.0,-100.00,North,0,5.0,10.0,87,0.00,,,0.00,0.000000,,2013-02-22 03:32:00,
2013-02-21 22:42:00,14.0,11.0,-100.00,North,0,5.0,10.0,87,0.00,,,0.00,0.000000,,2013-02-22 03:42:00,
2013-02-21 22:52:00,14.0,11.0,-100.00,North,0,5.0,10.0,87,0.00,,,0.00,0.000000,,2013-02-22 03:52:00,
2013-02-21 23:02:00,14.0,11.0,-100.00,North,0,5.0,10.0,87,0.00,,,0.00,0.000000,,2013-02-22 04:02:00,
2013-02-21 23:32:00,14.0,11.0,-100.00,North,0,8.0,15.0,87,0.00,,,0.00,0.000000,,2013-02-22 04:32:00,
2013-02-21 23:42:00,14.0,11.0,-100.00,North,0,8.0,15.0,87,0.00,,,0.00,0.000000,,2013-02-22 04:42:00,
2013-02-21 23:52:00,14.0,11.0,-100.00,North,0,8.0,15.0,87,0.00,,,0.00,0.000000,,2013-02-22 04:52:00,